createdAt,value
2023-05-26T00:01:04.151Z,7.13
2023-05-26T00:03:31.603Z,7.13
2023-05-26T00:05:59.035Z,6.30
2023-05-26T00:08:26.372Z,6.17
2023-05-26T00:10:53.924Z,6.53
2023-05-26T00:13:21.214Z,6.17
2023-05-26T00:15:48.710Z,6.13
2023-05-26T00:18:16.303Z,6.40
2023-05-26T00:20:43.718Z,6.30
2023-05-26T00:23:11.062Z,6.07
2023-05-26T00:25:38.332Z,6.27
2023-05-26T00:28:05.660Z,6.27
2023-05-26T00:30:32.931Z,6.20
2023-05-26T00:33:00.263Z,5.63
2023-05-26T00:35:27.613Z,5.80
2023-05-26T00:37:54.985Z,6.73
2023-05-26T00:40:22.278Z,5.83
2023-05-26T00:42:49.725Z,6.13
2023-05-26T00:45:16.955Z,5.20
2023-05-26T00:47:44.242Z,6.90
2023-05-26T00:50:17.861Z,6.23
2023-05-26T00:52:45.762Z,6.23
2023-05-26T00:55:13.243Z,6.20
2023-05-26T00:57:40.612Z,6.23
2023-05-26T01:00:11.511Z,5.90
2023-05-26T01:02:41.079Z,6.83
2023-05-26T01:05:09.996Z,6.23
2023-05-26T01:07:37.719Z,6.50
2023-05-26T01:10:05.742Z,6.10
2023-05-26T01:12:36.119Z,6.47
2023-05-26T01:15:29.985Z,5.73
2023-05-26T01:18:18.321Z,6.93
2023-05-26T01:20:55.117Z,6.27
2023-05-26T01:24:00.807Z,6.43
2023-05-26T01:26:39.742Z,6.37
2023-05-26T01:29:12.239Z,5.73
2023-05-26T01:31:40.578Z,5.20
2023-05-26T01:34:08.364Z,5.83
2023-05-26T01:36:36.991Z,6.63
2023-05-26T01:39:09.099Z,6.30
2023-05-26T01:41:44.238Z,6.60
2023-05-26T01:44:49.644Z,6.30
2023-05-26T01:47:17.457Z,5.70
2023-05-26T01:49:48.167Z,6.60
2023-05-26T01:52:18.462Z,7.10
2023-05-26T01:55:01.276Z,6.20
2023-05-26T01:57:30.158Z,6.23
2023-05-26T01:59:57.633Z,6.57
2023-05-26T02:02:24.958Z,6.10
2023-05-26T02:04:52.283Z,6.40
2023-05-26T02:07:20.275Z,5.50
2023-05-26T02:09:47.595Z,6.67
2023-05-26T02:12:14.867Z,5.70
2023-05-26T02:14:42.099Z,6.47
2023-05-26T02:17:11.904Z,6.10
2023-05-26T02:19:39.378Z,6.20
2023-05-26T02:22:06.632Z,6.30
2023-05-26T02:24:34.048Z,6.43
2023-05-26T02:27:01.453Z,5.90
2023-05-26T02:29:28.701Z,6.57
2023-05-26T02:31:56.030Z,6.87
2023-05-26T02:34:23.311Z,6.80
2023-05-26T02:36:50.629Z,6.60
2023-05-26T02:39:18.775Z,6.97
2023-05-26T02:41:46.210Z,7.10
2023-05-26T02:44:14.912Z,6.13
2023-05-26T02:46:42.281Z,6.57
2023-05-26T02:49:09.594Z,6.77
2023-05-26T02:51:37.254Z,6.63
2023-05-26T02:54:04.558Z,6.80
2023-05-26T02:56:31.848Z,6.90
2023-05-26T02:58:59.132Z,7.03
2023-05-26T03:01:26.539Z,6.73
2023-05-26T03:03:53.920Z,6.27
2023-05-26T03:06:21.423Z,7.30
2023-05-26T03:08:48.652Z,6.80
2023-05-26T03:11:16.117Z,6.20
2023-05-26T03:13:43.386Z,6.43
2023-05-26T03:16:11.590Z,6.10
2023-05-26T03:18:39.315Z,6.70
2023-05-26T03:21:47.180Z,6.80
2023-05-26T03:24:13.006Z,6.57
2023-05-26T03:26:40.642Z,6.23
2023-05-26T03:29:07.901Z,6.50
2023-05-26T03:31:35.230Z,6.77
2023-05-26T03:34:02.580Z,6.97
2023-05-26T03:36:30.052Z,7.00
2023-05-26T03:38:57.342Z,7.53
2023-05-26T03:41:25.199Z,6.83
2023-05-26T03:43:52.517Z,7.50
2023-05-26T03:46:19.930Z,6.77
2023-05-26T03:49:06.051Z,6.97
2023-05-26T03:51:51.644Z,7.53
2023-05-26T03:54:37.025Z,7.07
2023-05-26T03:57:04.607Z,6.97
2023-05-26T03:59:31.951Z,7.30
2023-05-26T04:01:59.763Z,7.10
2023-05-26T04:04:27.121Z,7.70
2023-05-26T04:06:54.402Z,7.73
2023-05-26T04:09:21.769Z,6.60
2023-05-26T04:11:48.985Z,6.77
2023-05-26T04:14:17.576Z,6.37
2023-05-26T04:16:45.073Z,7.03
2023-05-26T04:19:12.394Z,6.00
2023-05-26T04:21:39.652Z,6.27
2023-05-26T04:24:07.284Z,6.47
2023-05-26T04:26:34.761Z,5.67
2023-05-26T04:29:03.087Z,6.73
2023-05-26T04:31:30.632Z,6.50
2023-05-26T04:33:58.636Z,6.40
2023-05-26T04:36:26.383Z,6.50
2023-05-26T04:38:56.032Z,6.60
2023-05-26T04:41:23.320Z,6.27
2023-05-26T04:43:50.728Z,6.43
2023-05-26T04:46:18.115Z,7.03
2023-05-26T04:48:45.437Z,6.83
2023-05-26T04:51:12.714Z,6.77
2023-05-26T04:53:40.050Z,6.93
2023-05-26T04:56:07.524Z,6.67
2023-05-26T04:58:34.838Z,5.87
2023-05-26T05:01:04.654Z,7.07
2023-05-26T05:03:35.694Z,6.83
2023-05-26T05:06:03.310Z,6.10
2023-05-26T05:08:31.288Z,7.00
2023-05-26T05:10:58.665Z,6.90
2023-05-26T05:13:25.904Z,7.10
2023-05-26T05:15:53.168Z,7.37
2023-05-26T05:18:20.404Z,6.80
2023-05-26T05:20:47.879Z,6.27
2023-05-26T05:23:15.407Z,7.73
2023-05-26T05:25:43.375Z,6.67
2023-05-26T05:28:11.661Z,7.57
2023-05-26T05:30:41.064Z,7.53
2023-05-26T05:33:09.341Z,7.80
2023-05-26T05:35:36.817Z,7.13
2023-05-26T05:38:04.768Z,7.07
2023-05-26T05:40:32.066Z,7.00
2023-05-26T05:42:59.326Z,6.40
2023-05-26T05:45:26.560Z,6.13
2023-05-26T05:47:53.837Z,6.50
2023-05-26T05:50:21.383Z,6.00
2023-05-26T05:52:48.868Z,6.50
2023-05-26T05:55:16.474Z,6.33
2023-05-26T05:57:43.743Z,6.37
2023-05-26T06:00:12.279Z,5.73
2023-05-26T06:02:39.786Z,5.67
2023-05-26T06:05:07.374Z,6.93
2023-05-26T06:07:34.641Z,6.60
2023-05-26T06:10:02.036Z,5.90
2023-05-26T06:12:29.506Z,5.37
2023-05-26T06:14:56.911Z,5.33
2023-05-26T06:17:24.303Z,5.47
2023-05-26T06:19:51.610Z,6.03
2023-05-26T06:22:18.875Z,5.70
2023-05-26T06:24:46.171Z,5.93
2023-05-26T06:27:16.502Z,6.40
2023-05-26T06:29:44.101Z,5.10
2023-05-26T06:32:11.361Z,5.07
2023-05-26T06:34:38.653Z,5.63
2023-05-26T06:37:05.927Z,5.37
2023-05-26T06:39:33.182Z,5.07
2023-05-26T06:42:00.606Z,5.40
2023-05-26T06:44:28.003Z,5.70
2023-05-26T06:46:55.508Z,6.13
2023-05-26T06:49:22.734Z,5.07
2023-05-26T06:51:50.156Z,6.07
2023-05-26T06:54:17.600Z,5.63
2023-05-26T06:56:45.071Z,4.70
2023-05-26T06:59:12.510Z,4.33
2023-05-26T07:01:39.801Z,4.77
2023-05-26T07:04:07.148Z,5.47
2023-05-26T07:06:46.783Z,4.87
2023-05-26T07:09:15.428Z,4.50
2023-05-26T07:11:42.662Z,4.63
2023-05-26T07:14:09.926Z,4.90
2023-05-26T07:16:37.255Z,5.00
2023-05-26T07:19:04.856Z,4.60
2023-05-26T07:21:32.399Z,5.00
2023-05-26T07:24:00.159Z,4.57
2023-05-26T07:26:27.513Z,4.43
2023-05-26T07:28:56.223Z,4.60
2023-05-26T07:31:25.687Z,5.30
2023-05-26T07:33:53.008Z,4.97
2023-05-26T07:36:20.373Z,4.27
2023-05-26T07:38:47.710Z,4.30
2023-05-26T07:41:15.088Z,4.40
2023-05-26T07:43:42.353Z,5.17
2023-05-26T07:46:09.739Z,4.30
2023-05-26T07:48:37.095Z,4.30
2023-05-26T07:51:04.448Z,4.40
2023-05-26T07:53:31.705Z,4.07
2023-05-26T07:55:59.005Z,4.43
2023-05-26T07:58:26.229Z,3.60
2023-05-26T08:00:53.504Z,4.23
2023-05-26T08:03:21.035Z,4.30
2023-05-26T08:05:49.277Z,4.50
2023-05-26T08:08:16.950Z,4.33
2023-05-26T08:10:44.297Z,4.43
2023-05-26T08:13:11.628Z,4.40
2023-05-26T08:15:39.008Z,4.70
2023-05-26T08:18:06.485Z,4.40
2023-05-26T08:20:34.024Z,4.00
2023-05-26T08:23:01.569Z,4.20
2023-05-26T08:25:28.894Z,3.37
2023-05-26T08:27:56.179Z,4.03
2023-05-26T08:30:23.559Z,3.90
2023-05-26T08:32:51.180Z,3.40
2023-05-26T08:35:18.497Z,3.77
2023-05-26T08:37:45.896Z,3.53
2023-05-26T08:40:15.809Z,3.50
2023-05-26T08:42:47.637Z,4.07
2023-05-26T08:45:16.273Z,3.80
2023-05-26T08:47:44.098Z,3.80
2023-05-26T08:50:12.543Z,3.80
2023-05-26T08:52:47.953Z,3.53
2023-05-26T08:55:21.751Z,3.50
2023-05-26T08:57:50.007Z,3.73
2023-05-26T09:02:47.182Z,3.70
2023-05-26T09:05:15.806Z,3.80
2023-05-26T09:07:43.233Z,3.97
2023-05-26T09:10:23.919Z,3.60
2023-05-26T09:13:08.973Z,3.07
2023-05-26T09:15:38.475Z,4.30
2023-05-26T09:18:07.475Z,3.80
2023-05-26T09:20:42.002Z,3.60
2023-05-26T09:23:09.542Z,3.20
2023-05-26T09:25:38.813Z,3.30
2023-05-26T09:28:15.605Z,3.60
2023-05-26T09:30:47.932Z,3.40
2023-05-26T09:33:18.239Z,3.30
2023-05-26T09:35:47.824Z,3.50
2023-05-26T09:38:17.461Z,3.97
2023-05-26T09:40:51.240Z,3.37
2023-05-26T09:43:23.634Z,3.30
2023-05-26T09:45:51.501Z,3.50
2023-05-26T09:48:18.849Z,3.80
2023-05-26T09:50:46.151Z,3.73
2023-05-26T09:53:13.438Z,3.20
2023-05-26T09:55:42.133Z,3.33
2023-05-26T09:58:11.642Z,3.30
2023-05-26T10:00:41.803Z,3.80
2023-05-26T10:03:10.733Z,4.07
2023-05-26T10:05:40.907Z,3.23
2023-05-26T10:08:09.337Z,3.87
2023-05-26T10:10:38.088Z,3.33
2023-05-26T10:13:08.023Z,3.27
2023-05-26T10:15:35.455Z,3.97
2023-05-26T10:18:03.774Z,3.30
2023-05-26T10:20:31.943Z,3.70
2023-05-26T10:23:12.778Z,3.73
2023-05-26T10:25:58.397Z,3.60
2023-05-26T10:28:35.164Z,3.13
2023-05-26T10:31:03.268Z,3.23
2023-05-26T10:33:43.324Z,3.77
2023-05-26T10:36:15.550Z,3.20
2023-05-26T10:38:47.892Z,3.40
2023-05-26T10:41:33.339Z,3.53
2023-05-26T10:44:02.047Z,3.30
2023-05-26T10:46:59.727Z,2.80
2023-05-26T10:49:27.191Z,3.73
2023-05-26T10:51:56.099Z,2.80
2023-05-26T10:54:26.277Z,3.40
2023-05-26T10:56:55.324Z,3.13
2023-05-26T10:59:29.739Z,3.30
2023-05-26T11:02:04.785Z,3.60
2023-05-26T11:04:48.749Z,3.00
2023-05-26T11:07:23.566Z,2.97
2023-05-26T11:10:09.940Z,3.70
2023-05-26T11:12:49.278Z,3.27
2023-05-26T11:15:27.472Z,3.30
2023-05-26T11:18:01.173Z,2.63
2023-05-26T11:20:29.125Z,3.50
2023-05-26T11:22:57.215Z,3.30
2023-05-26T11:25:26.916Z,3.00
2023-05-26T11:27:54.488Z,3.10
2023-05-26T11:30:22.856Z,3.00
2023-05-26T11:32:52.006Z,3.20
2023-05-26T11:35:30.252Z,3.23
2023-05-26T11:37:57.594Z,2.77
2023-05-26T11:40:24.942Z,3.30
2023-05-26T11:42:56.403Z,3.87
2023-05-26T11:45:24.595Z,3.27
2023-05-26T11:47:52.587Z,3.00
2023-05-26T11:50:20.450Z,3.00
2023-05-26T11:52:49.182Z,2.60
2023-05-26T11:55:21.087Z,2.90
2023-05-26T11:57:49.375Z,3.00
2023-05-26T12:00:19.894Z,3.77
2023-05-26T12:02:48.337Z,3.07
2023-05-26T12:05:27.883Z,3.83
2023-05-26T12:08:09.173Z,3.00
2023-05-26T12:10:37.281Z,3.10
2023-05-26T12:13:04.587Z,3.67
2023-05-26T12:15:31.945Z,3.00
2023-05-26T12:18:01.897Z,3.30
2023-05-26T12:20:43.398Z,2.73
2023-05-26T12:23:12.990Z,3.80
2023-05-26T12:25:40.726Z,3.40
2023-05-26T12:28:08.078Z,3.07
2023-05-26T12:30:48.470Z,3.00
2023-05-26T12:33:17.290Z,3.00
2023-05-26T12:35:45.401Z,2.97
2023-05-26T12:38:14.282Z,3.17
2023-05-26T12:40:42.111Z,3.20
2023-05-26T12:43:09.552Z,3.03
2023-05-26T12:45:36.844Z,3.10
2023-05-26T12:48:04.588Z,3.27
2023-05-26T12:50:32.083Z,2.60
2023-05-26T12:52:59.278Z,2.63
2023-05-26T12:55:26.644Z,3.33
2023-05-26T12:57:53.914Z,3.43
2023-05-26T13:00:21.708Z,2.77
2023-05-26T13:02:49.162Z,3.00
2023-05-26T13:05:17.995Z,3.27
2023-05-26T13:07:45.389Z,2.90
2023-05-26T13:10:13.271Z,3.23
2023-05-26T13:12:42.781Z,4.27
2023-05-26T13:15:10.612Z,3.60
2023-05-26T13:17:38.099Z,2.97
2023-05-26T13:20:08.417Z,4.07
2023-05-26T13:22:37.244Z,2.63
2023-05-26T13:25:04.885Z,3.50
2023-05-26T13:27:32.120Z,3.20
2023-05-26T13:29:59.403Z,3.83
2023-05-26T13:32:27.010Z,3.40
2023-05-26T13:34:54.489Z,2.87
2023-05-26T13:37:22.494Z,2.77
2023-05-26T13:39:50.356Z,3.30
2023-05-26T13:42:17.686Z,2.67
2023-05-26T13:44:45.021Z,3.23
2023-05-26T13:47:12.321Z,3.50
2023-05-26T13:49:39.747Z,3.43
2023-05-26T13:52:07.558Z,3.40
2023-05-26T13:54:34.998Z,3.20
2023-05-26T13:57:02.372Z,3.47
2023-05-26T13:59:31.210Z,4.13
2023-05-26T14:02:16.965Z,4.10
2023-05-26T14:05:04.145Z,4.43
2023-05-26T14:07:31.579Z,3.83
2023-05-26T14:09:59.014Z,4.00
2023-05-26T14:12:27.008Z,3.43
2023-05-26T14:14:54.364Z,3.63
2023-05-26T14:17:21.896Z,4.17
2023-05-26T14:19:49.203Z,4.37
2023-05-26T14:22:17.529Z,3.53
2023-05-26T14:24:48.493Z,3.63
2023-05-26T14:27:15.945Z,3.60
2023-05-26T14:29:43.234Z,4.60
2023-05-26T14:32:10.843Z,4.37
2023-05-26T14:34:38.210Z,4.17
2023-05-26T14:37:05.823Z,4.00
2023-05-26T14:39:33.138Z,4.47
2023-05-26T14:42:00.641Z,3.90
2023-05-26T14:44:27.827Z,3.60
2023-05-26T14:46:56.673Z,3.67
2023-05-26T14:49:24.102Z,3.70
2023-05-26T14:51:51.419Z,4.20
2023-05-26T14:54:19.588Z,4.33
2023-05-26T14:56:47.189Z,4.20
2023-05-26T14:59:14.845Z,3.90
2023-05-26T15:01:42.475Z,4.07
2023-05-26T15:04:15.470Z,3.80
2023-05-26T15:06:43.968Z,3.97
2023-05-26T15:09:11.372Z,4.77
2023-05-26T15:11:38.881Z,4.67
2023-05-26T15:14:07.557Z,4.63
2023-05-26T15:16:35.248Z,4.37
2023-05-26T15:19:03.431Z,4.33
2023-05-26T15:24:04.580Z,4.60
2023-05-26T15:26:33.593Z,5.20
2023-05-26T15:29:01.191Z,4.53
2023-05-26T15:31:28.469Z,4.53
2023-05-26T15:33:55.804Z,4.70
2023-05-26T15:36:25.158Z,4.30
2023-05-26T15:38:55.607Z,4.93
2023-05-26T15:44:12.111Z,4.90
2023-05-26T15:46:41.520Z,4.70
2023-05-26T15:48:11.677Z,4.60
2023-05-26T15:49:12.956Z,4.80
2023-05-26T15:51:40.255Z,4.17
2023-05-26T15:54:07.532Z,4.77
2023-05-26T15:56:35.137Z,5.00
2023-05-26T15:59:02.404Z,4.83
2023-05-26T16:01:29.781Z,4.70
2023-05-26T16:03:57.283Z,4.63
2023-05-26T16:06:24.668Z,4.90
2023-05-26T16:08:51.969Z,4.97
2023-05-26T16:11:19.468Z,4.73
2023-05-26T16:13:47.536Z,4.47
2023-05-26T16:16:15.438Z,4.40
2023-05-26T16:18:43.010Z,4.00
2023-05-26T16:21:10.411Z,4.33
2023-05-26T16:23:37.737Z,4.57
2023-05-26T16:26:05.484Z,3.90
2023-05-26T16:28:32.768Z,4.10
2023-05-26T16:31:00.113Z,4.40
2023-05-26T16:33:27.487Z,3.70
2023-05-26T16:35:56.503Z,4.00
2023-05-26T16:38:25.278Z,4.20
2023-05-26T16:40:52.607Z,3.90
2023-05-26T16:43:32.055Z,4.00
2023-05-26T16:46:07.595Z,3.67
2023-05-26T16:48:35.913Z,4.10
2023-05-26T16:51:03.318Z,4.50
2023-05-26T16:53:30.603Z,4.17
2023-05-26T16:55:58.120Z,3.53
2023-05-26T16:58:25.519Z,3.70
2023-05-26T17:00:52.794Z,3.73
2023-05-26T17:03:20.373Z,4.20
2023-05-26T17:05:47.824Z,3.90
2023-05-26T17:08:15.470Z,3.63
2023-05-26T17:11:01.424Z,3.47
2023-05-26T17:13:47.296Z,3.33
2023-05-26T17:16:14.717Z,3.30
2023-05-26T17:18:42.093Z,3.67
2023-05-26T17:21:09.403Z,2.90
2023-05-26T17:23:38.920Z,3.53
2023-05-26T17:26:06.987Z,3.37
2023-05-26T17:28:36.751Z,3.03
2023-05-26T17:31:04.094Z,3.40
2023-05-26T17:33:31.561Z,3.40
2023-05-26T17:35:58.976Z,2.93
2023-05-26T17:38:26.588Z,3.27
2023-05-26T17:40:53.928Z,3.67
2023-05-26T17:43:21.359Z,3.30
2023-05-26T17:45:48.644Z,3.07
2023-05-26T17:48:16.122Z,3.10
2023-05-26T17:50:43.347Z,3.10
2023-05-26T17:53:10.632Z,4.13
2023-05-26T17:55:38.507Z,3.70
2023-05-26T17:58:05.858Z,4.40
2023-05-26T18:00:33.150Z,3.30
2023-05-26T18:03:00.610Z,3.27
2023-05-26T18:05:27.930Z,3.50
2023-05-26T18:07:55.161Z,3.50
2023-05-26T18:10:22.467Z,4.40
2023-05-26T18:12:49.910Z,3.80
2023-05-26T18:15:17.316Z,4.00
2023-05-26T18:17:44.614Z,3.70
2023-05-26T18:20:12.400Z,3.80
2023-05-26T18:22:39.801Z,3.77
2023-05-26T18:25:07.327Z,4.47
2023-05-26T18:27:34.539Z,4.10
2023-05-26T18:30:03.137Z,3.40
2023-05-26T18:32:30.832Z,3.83
2023-05-26T18:34:58.144Z,4.70
2023-05-26T18:37:25.484Z,4.40
2023-05-26T18:39:53.457Z,4.70
2023-05-26T18:42:22.689Z,4.23
2023-05-26T18:44:50.824Z,3.70
2023-05-26T18:47:18.199Z,3.60
2023-05-26T18:49:45.414Z,3.73
2023-05-26T18:52:12.784Z,3.73
2023-05-26T18:54:40.060Z,3.60
2023-05-26T18:57:07.733Z,3.57
2023-05-26T18:59:34.992Z,5.27
2023-05-26T19:02:02.668Z,5.80
2023-05-26T19:04:30.427Z,4.83
2023-05-26T19:06:57.881Z,3.23
2023-05-26T19:09:25.721Z,3.70
2023-05-26T19:11:54.320Z,4.20
2023-05-26T19:14:21.704Z,3.73
2023-05-26T19:16:49.390Z,3.37
2023-05-26T19:19:17.271Z,3.90
2023-05-26T19:21:44.601Z,3.77
2023-05-26T19:24:13.382Z,3.67
2023-05-26T19:26:41.565Z,4.23
2023-05-26T19:29:09.590Z,3.90
2023-05-26T19:31:37.371Z,4.17
2023-05-26T19:34:05.653Z,3.40
2023-05-26T19:36:32.960Z,4.53
2023-05-26T19:39:00.241Z,4.00
2023-05-26T19:41:27.902Z,3.60
2023-05-26T19:43:55.645Z,4.50
2023-05-26T19:46:23.206Z,4.03
2023-05-26T19:48:50.609Z,3.50
2023-05-26T19:51:17.981Z,3.63
2023-05-26T19:53:45.207Z,4.50
2023-05-26T19:56:12.517Z,4.20
2023-05-26T19:58:39.837Z,4.20
2023-05-26T20:01:07.327Z,4.00
2023-05-26T20:03:34.700Z,4.50
2023-05-26T20:06:02.129Z,3.97
2023-05-26T20:08:31.619Z,3.93
2023-05-26T20:10:59.332Z,3.90
2023-05-26T20:13:30.567Z,4.10
2023-05-26T20:15:58.036Z,4.27
2023-05-26T20:18:25.381Z,4.50
2023-05-26T20:20:53.111Z,4.47
2023-05-26T20:23:20.477Z,5.00
2023-05-26T20:25:49.770Z,5.80
2023-05-26T20:28:17.059Z,4.80
2023-05-26T20:30:44.574Z,4.83
2023-05-26T20:33:12.191Z,5.00
2023-05-26T20:35:39.999Z,5.00
2023-05-26T20:38:07.233Z,6.20
2023-05-26T20:40:34.640Z,6.10
2023-05-26T20:43:01.933Z,4.73
2023-05-26T20:45:29.341Z,5.57
2023-05-26T20:47:56.873Z,5.30
2023-05-26T20:50:24.546Z,4.93
2023-05-26T20:52:52.149Z,5.07
2023-05-26T20:55:19.832Z,5.00
2023-05-26T20:57:47.183Z,5.23
2023-05-26T21:00:15.650Z,5.03
2023-05-26T21:02:42.977Z,5.50
2023-05-26T21:05:10.615Z,5.43
2023-05-26T21:07:38.002Z,5.60
2023-05-26T21:10:05.845Z,6.07
2023-05-26T21:12:33.078Z,5.37
2023-05-26T21:15:00.683Z,7.03
2023-05-26T21:17:28.077Z,8.10
2023-05-26T21:19:55.653Z,6.97
2023-05-26T21:22:23.014Z,6.73
2023-05-26T21:24:50.545Z,5.70
2023-05-26T21:27:17.815Z,5.93
2023-05-26T21:29:45.354Z,6.63
2023-05-26T21:32:13.224Z,7.40
2023-05-26T21:34:40.511Z,7.93
2023-05-26T21:37:07.855Z,5.40
2023-05-26T21:39:36.193Z,5.23
2023-05-26T21:42:03.473Z,6.13
2023-05-26T21:44:30.784Z,5.37
2023-05-26T21:46:58.194Z,5.27
2023-05-26T21:49:25.627Z,5.60
2023-05-26T21:51:52.943Z,5.70
2023-05-26T21:54:20.191Z,5.30
2023-05-26T21:56:47.505Z,5.47
2023-05-26T21:59:14.877Z,4.83
2023-05-26T22:01:42.211Z,4.70
2023-05-26T22:04:09.500Z,4.63
2023-05-26T22:06:36.788Z,5.00
2023-05-26T22:09:04.294Z,5.77
2023-05-26T22:11:32.165Z,5.57
2023-05-26T22:14:01.046Z,5.77
2023-05-26T22:16:30.113Z,5.60
2023-05-26T22:18:57.507Z,4.13
2023-05-26T22:21:24.799Z,5.07
2023-05-26T22:23:52.125Z,6.00
2023-05-26T22:26:19.445Z,4.70
2023-05-26T22:28:47.017Z,4.50
2023-05-26T22:31:14.315Z,5.30
2023-05-26T22:33:41.622Z,5.30
2023-05-26T22:36:08.946Z,4.97
2023-05-26T22:38:36.157Z,4.50
2023-05-26T22:41:03.562Z,4.93
2023-05-26T22:43:30.855Z,5.33
2023-05-26T22:45:58.796Z,4.97
2023-05-26T22:48:26.274Z,5.17
2023-05-26T22:50:53.596Z,5.57
2023-05-26T22:53:21.037Z,4.60
2023-05-26T22:55:54.165Z,4.60
2023-05-26T22:58:28.146Z,5.67
2023-05-26T23:00:55.484Z,5.53
2023-05-26T23:03:22.941Z,5.43
2023-05-26T23:05:50.210Z,4.93
2023-05-26T23:08:17.632Z,4.83
2023-05-26T23:10:44.931Z,5.30
2023-05-26T23:13:12.265Z,5.33
2023-05-26T23:15:39.536Z,4.80
2023-05-26T23:18:06.838Z,5.90
2023-05-26T23:20:34.207Z,5.10
2023-05-26T23:23:01.659Z,5.03
2023-05-26T23:25:28.916Z,5.43
2023-05-26T23:27:56.227Z,5.00
2023-05-26T23:30:23.763Z,5.10
2023-05-26T23:32:51.097Z,5.33
2023-05-26T23:35:18.490Z,5.03
2023-05-26T23:37:45.901Z,5.60
2023-05-26T23:40:13.239Z,5.40
2023-05-26T23:42:40.859Z,4.63
2023-05-26T23:45:09.015Z,5.17
2023-05-26T23:47:36.379Z,5.30
2023-05-26T23:50:03.843Z,4.93
2023-05-26T23:52:31.197Z,4.70
2023-05-26T23:54:58.436Z,5.50
2023-05-26T23:57:26.246Z,5.60
2023-05-26T23:59:53.497Z,5.23
